sensor_id;sensor_type;location;lat;lon;timestamp;P1;durP1;ratioP1;P2;durP2;ratioP2
7203;SDS011;3643;52.460;13.322;2024-01-11T00:01:52;24.17;;;11.70;;
7203;SDS011;3643;52.460;13.322;2024-01-11T00:04:20;25.00;;;11.87;;
7203;SDS011;3643;52.460;13.322;2024-01-11T00:06:50;23.83;;;11.83;;
7203;SDS011;3643;52.460;13.322;2024-01-11T00:09:19;25.73;;;12.00;;
7203;SDS011;3643;52.460;13.322;2024-01-11T00:11:50;26.40;;;13.53;;
7203;SDS011;3643;52.460;13.322;2024-01-11T00:14:18;26.53;;;13.20;;
7203;SDS011;3643;52.460;13.322;2024-01-11T00:16:46;32.20;;;14.73;;
7203;SDS011;3643;52.460;13.322;2024-01-11T00:19:14;27.70;;;13.97;;
7203;SDS011;3643;52.460;13.322;2024-01-11T00:21:42;32.43;;;14.00;;
7203;SDS011;3643;52.460;13.322;2024-01-11T00:24:11;25.80;;;13.03;;
7203;SDS011;3643;52.460;13.322;2024-01-11T00:26:39;28.80;;;13.40;;
7203;SDS011;3643;52.460;13.322;2024-01-11T00:29:08;21.57;;;11.87;;
7203;SDS011;3643;52.460;13.322;2024-01-11T00:31:36;24.83;;;11.17;;
7203;SDS011;3643;52.460;13.322;2024-01-11T00:34:04;18.63;;;9.50;;
7203;SDS011;3643;52.460;13.322;2024-01-11T00:36:33;23.00;;;9.73;;
7203;SDS011;3643;52.460;13.322;2024-01-11T00:39:02;20.57;;;9.40;;
7203;SDS011;3643;52.460;13.322;2024-01-11T00:41:32;18.10;;;9.63;;
7203;SDS011;3643;52.460;13.322;2024-01-11T00:44:02;16.73;;;9.50;;
7203;SDS011;3643;52.460;13.322;2024-01-11T00:46:30;18.07;;;10.13;;
7203;SDS011;3643;52.460;13.322;2024-01-11T00:48:58;19.77;;;10.07;;
7203;SDS011;3643;52.460;13.322;2024-01-11T00:51:26;18.67;;;9.30;;
7203;SDS011;3643;52.460;13.322;2024-01-11T00:53:55;19.60;;;9.60;;
7203;SDS011;3643;52.460;13.322;2024-01-11T00:56:22;20.90;;;9.93;;
7203;SDS011;3643;52.460;13.322;2024-01-11T00:58:54;16.73;;;8.20;;
7203;SDS011;3643;52.460;13.322;2024-01-11T01:01:22;19.00;;;8.53;;
7203;SDS011;3643;52.460;13.322;2024-01-11T01:03:50;16.20;;;8.83;;
7203;SDS011;3643;52.460;13.322;2024-01-11T01:06:18;15.97;;;8.30;;
7203;SDS011;3643;52.460;13.322;2024-01-11T01:08:46;15.67;;;8.30;;
7203;SDS011;3643;52.460;13.322;2024-01-11T01:11:14;16.67;;;8.13;;
7203;SDS011;3643;52.460;13.322;2024-01-11T01:13:42;16.37;;;8.30;;
7203;SDS011;3643;52.460;13.322;2024-01-11T01:16:11;15.80;;;8.40;;
7203;SDS011;3643;52.460;13.322;2024-01-11T01:18:40;15.47;;;9.03;;
7203;SDS011;3643;52.460;13.322;2024-01-11T01:21:08;24.33;;;10.50;;
7203;SDS011;3643;52.460;13.322;2024-01-11T01:23:36;23.40;;;11.60;;
7203;SDS011;3643;52.460;13.322;2024-01-11T01:26:04;31.97;;;13.10;;
7203;SDS011;3643;52.460;13.322;2024-01-11T01:28:33;24.43;;;12.70;;
7203;SDS011;3643;52.460;13.322;2024-01-11T01:31:02;30.70;;;13.37;;
7203;SDS011;3643;52.460;13.322;2024-01-11T01:33:32;23.70;;;12.20;;
7203;SDS011;3643;52.460;13.322;2024-01-11T01:36:02;23.43;;;10.83;;
7203;SDS011;3643;52.460;13.322;2024-01-11T01:38:31;23.43;;;10.43;;
7203;SDS011;3643;52.460;13.322;2024-01-11T01:40:59;24.80;;;10.63;;
7203;SDS011;3643;52.460;13.322;2024-01-11T01:43:27;19.47;;;9.83;;
7203;SDS011;3643;52.460;13.322;2024-01-11T01:45:55;18.67;;;9.17;;
7203;SDS011;3643;52.460;13.322;2024-01-11T01:48:23;22.50;;;10.97;;
7203;SDS011;3643;52.460;13.322;2024-01-11T01:50:53;25.97;;;10.63;;
7203;SDS011;3643;52.460;13.322;2024-01-11T01:53:22;22.10;;;10.57;;
7203;SDS011;3643;52.460;13.322;2024-01-11T01:55:52;26.50;;;12.23;;
7203;SDS011;3643;52.460;13.322;2024-01-11T01:58:20;21.07;;;10.70;;
7203;SDS011;3643;52.460;13.322;2024-01-11T02:00:50;20.60;;;11.23;;
7203;SDS011;3643;52.460;13.322;2024-01-11T02:03:19;24.77;;;11.47;;
7203;SDS011;3643;52.460;13.322;2024-01-11T02:05:48;24.27;;;11.13;;
7203;SDS011;3643;52.460;13.322;2024-01-11T02:08:21;21.93;;;10.37;;
7203;SDS011;3643;52.460;13.322;2024-01-11T02:10:50;30.23;;;11.63;;
7203;SDS011;3643;52.460;13.322;2024-01-11T02:13:19;20.37;;;9.60;;
7203;SDS011;3643;52.460;13.322;2024-01-11T02:15:48;21.37;;;9.33;;
7203;SDS011;3643;52.460;13.322;2024-01-11T02:18:17;20.67;;;10.17;;
7203;SDS011;3643;52.460;13.322;2024-01-11T02:20:45;18.73;;;9.37;;
7203;SDS011;3643;52.460;13.322;2024-01-11T02:23:14;21.17;;;9.90;;
7203;SDS011;3643;52.460;13.322;2024-01-11T02:25:47;19.47;;;9.30;;
7203;SDS011;3643;52.460;13.322;2024-01-11T02:28:15;20.03;;;9.40;;
7203;SDS011;3643;52.460;13.322;2024-01-11T02:30:43;22.10;;;10.27;;
7203;SDS011;3643;52.460;13.322;2024-01-11T02:33:11;16.40;;;9.13;;
7203;SDS011;3643;52.460;13.322;2024-01-11T02:35:42;19.53;;;9.30;;
7203;SDS011;3643;52.460;13.322;2024-01-11T02:38:13;24.30;;;9.57;;
7203;SDS011;3643;52.460;13.322;2024-01-11T02:40:42;20.40;;;9.10;;
7203;SDS011;3643;52.460;13.322;2024-01-11T02:43:12;15.87;;;7.70;;
7203;SDS011;3643;52.460;13.322;2024-01-11T02:45:42;15.87;;;7.37;;
7203;SDS011;3643;52.460;13.322;2024-01-11T02:48:10;15.37;;;7.57;;
7203;SDS011;3643;52.460;13.322;2024-01-11T02:50:39;17.47;;;8.60;;
7203;SDS011;3643;52.460;13.322;2024-01-11T02:53:07;14.77;;;7.67;;
7203;SDS011;3643;52.460;13.322;2024-01-11T02:55:35;13.53;;;7.30;;
7203;SDS011;3643;52.460;13.322;2024-01-11T02:58:03;20.07;;;9.60;;
7203;SDS011;3643;52.460;13.322;2024-01-11T03:00:32;16.87;;;7.97;;
7203;SDS011;3643;52.460;13.322;2024-01-11T03:03:00;18.20;;;9.10;;
7203;SDS011;3643;52.460;13.322;2024-01-11T03:05:28;21.20;;;9.90;;
7203;SDS011;3643;52.460;13.322;2024-01-11T03:07:56;21.83;;;10.03;;
7203;SDS011;3643;52.460;13.322;2024-01-11T03:10:24;18.47;;;8.47;;
7203;SDS011;3643;52.460;13.322;2024-01-11T03:12:52;18.03;;;8.80;;
7203;SDS011;3643;52.460;13.322;2024-01-11T03:15:20;21.60;;;8.63;;
7203;SDS011;3643;52.460;13.322;2024-01-11T03:17:50;17.33;;;7.80;;
7203;SDS011;3643;52.460;13.322;2024-01-11T03:20:18;17.33;;;8.37;;
7203;SDS011;3643;52.460;13.322;2024-01-11T03:22:51;14.20;;;7.00;;
7203;SDS011;3643;52.460;13.322;2024-01-11T03:25:19;15.53;;;7.37;;
7203;SDS011;3643;52.460;13.322;2024-01-11T03:27:47;17.70;;;7.00;;
7203;SDS011;3643;52.460;13.322;2024-01-11T03:30:15;14.30;;;7.03;;
7203;SDS011;3643;52.460;13.322;2024-01-11T03:32:43;17.53;;;7.77;;
7203;SDS011;3643;52.460;13.322;2024-01-11T03:35:13;19.37;;;8.00;;
7203;SDS011;3643;52.460;13.322;2024-01-11T03:37:41;18.03;;;8.27;;
7203;SDS011;3643;52.460;13.322;2024-01-11T03:40:10;14.87;;;7.17;;
7203;SDS011;3643;52.460;13.322;2024-01-11T03:42:39;17.47;;;7.80;;
7203;SDS011;3643;52.460;13.322;2024-01-11T03:45:07;16.60;;;7.83;;
7203;SDS011;3643;52.460;13.322;2024-01-11T03:47:35;18.27;;;7.67;;
7203;SDS011;3643;52.460;13.322;2024-01-11T03:50:04;16.13;;;7.60;;
7203;SDS011;3643;52.460;13.322;2024-01-11T03:52:34;21.33;;;8.07;;
7203;SDS011;3643;52.460;13.322;2024-01-11T03:55:05;17.10;;;7.60;;
7203;SDS011;3643;52.460;13.322;2024-01-11T03:57:33;17.77;;;7.37;;
7203;SDS011;3643;52.460;13.322;2024-01-11T04:00:01;17.63;;;7.73;;
7203;SDS011;3643;52.460;13.322;2024-01-11T04:02:30;21.60;;;8.33;;
7203;SDS011;3643;52.460;13.322;2024-01-11T04:04:58;14.37;;;7.03;;
7203;SDS011;3643;52.460;13.322;2024-01-11T04:07:27;16.00;;;6.73;;
7203;SDS011;3643;52.460;13.322;2024-01-11T04:09:56;16.80;;;7.40;;
7203;SDS011;3643;52.460;13.322;2024-01-11T04:12:27;19.63;;;8.23;;
7203;SDS011;3643;52.460;13.322;2024-01-11T04:14:55;15.30;;;6.33;;
7203;SDS011;3643;52.460;13.322;2024-01-11T04:17:23;16.83;;;7.90;;
7203;SDS011;3643;52.460;13.322;2024-01-11T04:19:51;15.27;;;6.73;;
7203;SDS011;3643;52.460;13.322;2024-01-11T04:22:19;14.17;;;6.77;;
7203;SDS011;3643;52.460;13.322;2024-01-11T04:24:47;16.03;;;7.37;;
7203;SDS011;3643;52.460;13.322;2024-01-11T04:27:19;14.97;;;6.27;;
7203;SDS011;3643;52.460;13.322;2024-01-11T04:29:47;17.23;;;7.27;;
7203;SDS011;3643;52.460;13.322;2024-01-11T04:32:15;14.97;;;6.33;;
7203;SDS011;3643;52.460;13.322;2024-01-11T04:34:43;17.50;;;7.77;;
7203;SDS011;3643;52.460;13.322;2024-01-11T04:37:11;18.40;;;7.00;;
7203;SDS011;3643;52.460;13.322;2024-01-11T04:39:39;19.20;;;6.77;;
7203;SDS011;3643;52.460;13.322;2024-01-11T04:42:07;18.40;;;7.10;;
7203;SDS011;3643;52.460;13.322;2024-01-11T04:44:36;18.27;;;7.23;;
7203;SDS011;3643;52.460;13.322;2024-01-11T04:47:06;14.80;;;7.40;;
7203;SDS011;3643;52.460;13.322;2024-01-11T04:49:34;15.47;;;6.60;;
7203;SDS011;3643;52.460;13.322;2024-01-11T04:52:02;18.60;;;7.33;;
7203;SDS011;3643;52.460;13.322;2024-01-11T04:54:31;17.63;;;7.67;;
7203;SDS011;3643;52.460;13.322;2024-01-11T04:56:59;15.67;;;6.57;;
7203;SDS011;3643;52.460;13.322;2024-01-11T04:59:27;13.67;;;6.97;;
7203;SDS011;3643;52.460;13.322;2024-01-11T05:01:57;17.67;;;7.10;;
7203;SDS011;3643;52.460;13.322;2024-01-11T05:04:25;19.17;;;7.47;;
7203;SDS011;3643;52.460;13.322;2024-01-11T05:06:53;16.73;;;7.20;;
7203;SDS011;3643;52.460;13.322;2024-01-11T05:09:23;13.53;;;6.17;;
7203;SDS011;3643;52.460;13.322;2024-01-11T05:11:51;16.80;;;6.60;;
7203;SDS011;3643;52.460;13.322;2024-01-11T05:14:19;16.63;;;6.80;;
7203;SDS011;3643;52.460;13.322;2024-01-11T05:16:47;17.27;;;6.63;;
7203;SDS011;3643;52.460;13.322;2024-01-11T05:19:18;14.20;;;6.20;;
7203;SDS011;3643;52.460;13.322;2024-01-11T05:21:46;18.13;;;7.20;;
7203;SDS011;3643;52.460;13.322;2024-01-11T05:24:14;19.33;;;7.43;;
7203;SDS011;3643;52.460;13.322;2024-01-11T05:26:42;18.23;;;7.67;;
7203;SDS011;3643;52.460;13.322;2024-01-11T05:29:10;20.23;;;7.70;;
7203;SDS011;3643;52.460;13.322;2024-01-11T05:31:38;21.87;;;7.17;;
7203;SDS011;3643;52.460;13.322;2024-01-11T05:34:06;22.07;;;8.63;;
7203;SDS011;3643;52.460;13.322;2024-01-11T05:36:36;22.60;;;7.57;;
7203;SDS011;3643;52.460;13.322;2024-01-11T05:39:06;20.43;;;7.67;;
7203;SDS011;3643;52.460;13.322;2024-01-11T05:41:34;18.23;;;8.30;;
7203;SDS011;3643;52.460;13.322;2024-01-11T05:44:03;22.13;;;8.30;;
7203;SDS011;3643;52.460;13.322;2024-01-11T05:46:31;21.03;;;7.43;;
7203;SDS011;3643;52.460;13.322;2024-01-11T05:48:59;20.63;;;7.37;;
7203;SDS011;3643;52.460;13.322;2024-01-11T05:51:27;20.67;;;7.57;;
7203;SDS011;3643;52.460;13.322;2024-01-11T05:53:57;25.70;;;8.93;;
7203;SDS011;3643;52.460;13.322;2024-01-11T05:56:25;19.63;;;7.77;;
7203;SDS011;3643;52.460;13.322;2024-01-11T05:58:53;19.40;;;8.20;;
7203;SDS011;3643;52.460;13.322;2024-01-11T06:01:21;22.27;;;8.13;;
7203;SDS011;3643;52.460;13.322;2024-01-11T06:03:49;23.77;;;7.80;;
7203;SDS011;3643;52.460;13.322;2024-01-11T06:06:17;25.93;;;8.93;;
7203;SDS011;3643;52.460;13.322;2024-01-11T06:08:45;24.77;;;8.43;;
7203;SDS011;3643;52.460;13.322;2024-01-11T06:11:16;22.27;;;8.77;;
7203;SDS011;3643;52.460;13.322;2024-01-11T06:13:44;24.97;;;9.13;;
7203;SDS011;3643;52.460;13.322;2024-01-11T06:16:13;24.57;;;8.57;;
7203;SDS011;3643;52.460;13.322;2024-01-11T06:18:41;23.97;;;8.23;;
7203;SDS011;3643;52.460;13.322;2024-01-11T06:21:09;25.47;;;9.27;;
7203;SDS011;3643;52.460;13.322;2024-01-11T06:23:37;32.60;;;9.83;;
7203;SDS011;3643;52.460;13.322;2024-01-11T06:26:05;26.30;;;9.97;;
7203;SDS011;3643;52.460;13.322;2024-01-11T06:28:36;22.97;;;8.73;;
7203;SDS011;3643;52.460;13.322;2024-01-11T06:31:04;26.37;;;9.20;;
7203;SDS011;3643;52.460;13.322;2024-01-11T06:33:35;27.20;;;8.63;;
7203;SDS011;3643;52.460;13.322;2024-01-11T06:36:04;27.30;;;10.57;;
7203;SDS011;3643;52.460;13.322;2024-01-11T06:38:33;24.30;;;7.63;;
7203;SDS011;3643;52.460;13.322;2024-01-11T06:41:01;28.43;;;9.80;;
7203;SDS011;3643;52.460;13.322;2024-01-11T06:43:29;21.77;;;8.83;;
7203;SDS011;3643;52.460;13.322;2024-01-11T06:46:03;26.53;;;9.40;;
7203;SDS011;3643;52.460;13.322;2024-01-11T06:48:31;25.53;;;10.10;;
7203;SDS011;3643;52.460;13.322;2024-01-11T06:51:00;28.30;;;9.47;;
7203;SDS011;3643;52.460;13.322;2024-01-11T06:53:28;35.23;;;11.00;;
7203;SDS011;3643;52.460;13.322;2024-01-11T06:55:56;34.63;;;11.13;;
7203;SDS011;3643;52.460;13.322;2024-01-11T06:58:24;27.87;;;9.97;;
7203;SDS011;3643;52.460;13.322;2024-01-11T07:00:52;26.10;;;10.50;;
7203;SDS011;3643;52.460;13.322;2024-01-11T07:03:22;35.70;;;11.40;;
7203;SDS011;3643;52.460;13.322;2024-01-11T07:05:50;31.63;;;10.80;;
7203;SDS011;3643;52.460;13.322;2024-01-11T07:08:18;32.07;;;10.20;;
7203;SDS011;3643;52.460;13.322;2024-01-11T07:10:48;36.03;;;11.00;;
7203;SDS011;3643;52.460;13.322;2024-01-11T07:13:17;38.03;;;12.43;;
7203;SDS011;3643;52.460;13.322;2024-01-11T07:15:45;31.50;;;10.20;;
7203;SDS011;3643;52.460;13.322;2024-01-11T07:18:14;33.07;;;11.47;;
7203;SDS011;3643;52.460;13.322;2024-01-11T07:20:44;36.73;;;11.30;;
7203;SDS011;3643;52.460;13.322;2024-01-11T07:23:12;34.87;;;12.10;;
7203;SDS011;3643;52.460;13.322;2024-01-11T07:25:40;32.93;;;11.80;;
7203;SDS011;3643;52.460;13.322;2024-01-11T07:28:08;40.70;;;12.90;;
7203;SDS011;3643;52.460;13.322;2024-01-11T07:30:36;29.20;;;10.77;;
7203;SDS011;3643;52.460;13.322;2024-01-11T07:33:06;32.20;;;11.87;;
7203;SDS011;3643;52.460;13.322;2024-01-11T07:35:36;34.13;;;11.80;;
7203;SDS011;3643;52.460;13.322;2024-01-11T07:38:06;35.43;;;11.93;;
7203;SDS011;3643;52.460;13.322;2024-01-11T07:40:34;34.37;;;13.23;;
7203;SDS011;3643;52.460;13.322;2024-01-11T07:43:04;35.10;;;11.80;;
7203;SDS011;3643;52.460;13.322;2024-01-11T07:45:31;40.60;;;13.80;;
7203;SDS011;3643;52.460;13.322;2024-01-11T07:48:00;43.53;;;13.03;;
7203;SDS011;3643;52.460;13.322;2024-01-11T07:50:30;34.83;;;11.43;;
7203;SDS011;3643;52.460;13.322;2024-01-11T07:52:58;34.03;;;12.00;;
7203;SDS011;3643;52.460;13.322;2024-01-11T07:55:27;41.53;;;14.07;;
7203;SDS011;3643;52.460;13.322;2024-01-11T07:58:03;41.40;;;13.87;;
7203;SDS011;3643;52.460;13.322;2024-01-11T08:00:31;34.90;;;12.20;;
7203;SDS011;3643;52.460;13.322;2024-01-11T08:02:59;37.70;;;13.43;;
7203;SDS011;3643;52.460;13.322;2024-01-11T08:05:28;39.47;;;13.37;;
7203;SDS011;3643;52.460;13.322;2024-01-11T08:07:56;34.03;;;12.60;;
7203;SDS011;3643;52.460;13.322;2024-01-11T08:10:29;37.43;;;13.27;;
7203;SDS011;3643;52.460;13.322;2024-01-11T08:12:58;36.13;;;12.87;;
7203;SDS011;3643;52.460;13.322;2024-01-11T08:15:26;32.57;;;12.27;;
7203;SDS011;3643;52.460;13.322;2024-01-11T08:17:54;33.97;;;13.30;;
7203;SDS011;3643;52.460;13.322;2024-01-11T08:20:23;35.50;;;13.40;;
7203;SDS011;3643;52.460;13.322;2024-01-11T08:22:51;34.17;;;13.80;;
7203;SDS011;3643;52.460;13.322;2024-01-11T08:25:19;36.80;;;12.67;;
7203;SDS011;3643;52.460;13.322;2024-01-11T08:27:51;33.17;;;13.07;;
7203;SDS011;3643;52.460;13.322;2024-01-11T08:30:19;42.47;;;14.23;;
7203;SDS011;3643;52.460;13.322;2024-01-11T08:32:47;36.30;;;13.30;;
7203;SDS011;3643;52.460;13.322;2024-01-11T08:35:16;38.77;;;13.27;;
7203;SDS011;3643;52.460;13.322;2024-01-11T08:37:44;42.73;;;13.90;;
7203;SDS011;3643;52.460;13.322;2024-01-11T08:40:12;41.83;;;12.77;;
7203;SDS011;3643;52.460;13.322;2024-01-11T08:42:42;33.33;;;13.33;;
7203;SDS011;3643;52.460;13.322;2024-01-11T08:45:12;33.10;;;12.87;;
7203;SDS011;3643;52.460;13.322;2024-01-11T08:47:44;34.40;;;13.40;;
7203;SDS011;3643;52.460;13.322;2024-01-11T08:50:13;37.07;;;12.63;;
7203;SDS011;3643;52.460;13.322;2024-01-11T08:52:42;32.83;;;13.80;;
7203;SDS011;3643;52.460;13.322;2024-01-11T08:55:10;37.27;;;13.17;;
7203;SDS011;3643;52.460;13.322;2024-01-11T08:57:39;35.13;;;12.83;;
7203;SDS011;3643;52.460;13.322;2024-01-11T09:00:08;34.40;;;12.80;;
7203;SDS011;3643;52.460;13.322;2024-01-11T09:02:38;37.23;;;13.87;;
7203;SDS011;3643;52.460;13.322;2024-01-11T09:05:07;38.20;;;12.93;;
7203;SDS011;3643;52.460;13.322;2024-01-11T09:07:35;34.33;;;12.07;;
7203;SDS011;3643;52.460;13.322;2024-01-11T09:10:04;32.37;;;12.90;;
7203;SDS011;3643;52.460;13.322;2024-01-11T09:12:34;31.77;;;12.27;;
7203;SDS011;3643;52.460;13.322;2024-01-11T09:15:03;35.33;;;13.03;;
7203;SDS011;3643;52.460;13.322;2024-01-11T09:17:31;36.17;;;13.47;;
7203;SDS011;3643;52.460;13.322;2024-01-11T09:20:01;30.57;;;12.27;;
7203;SDS011;3643;52.460;13.322;2024-01-11T09:22:30;34.30;;;14.30;;
7203;SDS011;3643;52.460;13.322;2024-01-11T09:24:58;35.20;;;13.97;;
7203;SDS011;3643;52.460;13.322;2024-01-11T09:27:26;33.90;;;13.30;;
7203;SDS011;3643;52.460;13.322;2024-01-11T09:29:56;34.13;;;13.43;;
7203;SDS011;3643;52.460;13.322;2024-01-11T09:32:24;31.37;;;12.80;;
7203;SDS011;3643;52.460;13.322;2024-01-11T09:34:52;35.60;;;14.63;;
7203;SDS011;3643;52.460;13.322;2024-01-11T09:37:22;32.30;;;13.50;;
7203;SDS011;3643;52.460;13.322;2024-01-11T09:39:50;34.13;;;12.57;;
7203;SDS011;3643;52.460;13.322;2024-01-11T09:42:19;34.17;;;12.83;;
7203;SDS011;3643;52.460;13.322;2024-01-11T09:44:47;35.37;;;12.67;;
7203;SDS011;3643;52.460;13.322;2024-01-11T09:47:15;35.10;;;13.40;;
7203;SDS011;3643;52.460;13.322;2024-01-11T09:49:44;34.53;;;13.70;;
7203;SDS011;3643;52.460;13.322;2024-01-11T09:52:15;38.90;;;15.30;;
7203;SDS011;3643;52.460;13.322;2024-01-11T09:54:46;35.80;;;13.80;;
7203;SDS011;3643;52.460;13.322;2024-01-11T09:57:15;34.73;;;13.87;;
7203;SDS011;3643;52.460;13.322;2024-01-11T09:59:48;34.37;;;13.03;;
7203;SDS011;3643;52.460;13.322;2024-01-11T10:02:18;31.97;;;12.67;;
7203;SDS011;3643;52.460;13.322;2024-01-11T10:04:47;32.93;;;13.03;;
7203;SDS011;3643;52.460;13.322;2024-01-11T10:07:15;35.60;;;15.00;;
7203;SDS011;3643;52.460;13.322;2024-01-11T10:09:48;32.53;;;12.80;;
7203;SDS011;3643;52.460;13.322;2024-01-11T10:12:17;34.00;;;13.40;;
7203;SDS011;3643;52.460;13.322;2024-01-11T10:14:48;40.20;;;15.30;;
7203;SDS011;3643;52.460;13.322;2024-01-11T10:17:18;36.23;;;14.17;;
7203;SDS011;3643;52.460;13.322;2024-01-11T10:19:50;31.07;;;13.03;;
7203;SDS011;3643;52.460;13.322;2024-01-11T10:22:20;36.27;;;14.03;;
7203;SDS011;3643;52.460;13.322;2024-01-11T10:24:56;35.60;;;12.97;;
7203;SDS011;3643;52.460;13.322;2024-01-11T10:27:38;37.47;;;14.23;;
7203;SDS011;3643;52.460;13.322;2024-01-11T10:30:09;37.70;;;14.53;;
7203;SDS011;3643;52.460;13.322;2024-01-11T10:32:43;33.87;;;14.13;;
7203;SDS011;3643;52.460;13.322;2024-01-11T10:35:11;39.17;;;14.67;;
7203;SDS011;3643;52.460;13.322;2024-01-11T10:37:39;35.40;;;14.53;;
7203;SDS011;3643;52.460;13.322;2024-01-11T10:40:12;37.43;;;15.67;;
7203;SDS011;3643;52.460;13.322;2024-01-11T10:42:42;32.77;;;13.40;;
7203;SDS011;3643;52.460;13.322;2024-01-11T10:45:14;35.73;;;13.60;;
7203;SDS011;3643;52.460;13.322;2024-01-11T10:47:47;36.83;;;14.43;;
7203;SDS011;3643;52.460;13.322;2024-01-11T10:50:19;41.43;;;14.73;;
7203;SDS011;3643;52.460;13.322;2024-01-11T10:52:54;34.93;;;13.97;;
7203;SDS011;3643;52.460;13.322;2024-01-11T10:55:33;33.27;;;13.67;;
7203;SDS011;3643;52.460;13.322;2024-01-11T10:58:02;36.80;;;14.37;;
7203;SDS011;3643;52.460;13.322;2024-01-11T11:00:31;36.73;;;15.07;;
7203;SDS011;3643;52.460;13.322;2024-01-11T11:03:00;38.33;;;14.63;;
7203;SDS011;3643;52.460;13.322;2024-01-11T11:05:30;36.63;;;14.13;;
7203;SDS011;3643;52.460;13.322;2024-01-11T11:08:01;37.33;;;13.47;;
7203;SDS011;3643;52.460;13.322;2024-01-11T11:10:33;41.00;;;14.97;;
7203;SDS011;3643;52.460;13.322;2024-01-11T11:13:02;36.77;;;15.20;;
7203;SDS011;3643;52.460;13.322;2024-01-11T11:15:33;40.87;;;15.17;;
7203;SDS011;3643;52.460;13.322;2024-01-11T11:18:03;43.80;;;15.90;;
7203;SDS011;3643;52.460;13.322;2024-01-11T11:20:34;35.67;;;14.73;;
7203;SDS011;3643;52.460;13.322;2024-01-11T11:23:05;36.23;;;14.33;;
7203;SDS011;3643;52.460;13.322;2024-01-11T11:25:37;42.07;;;15.00;;
7203;SDS011;3643;52.460;13.322;2024-01-11T11:28:07;41.57;;;14.50;;
7203;SDS011;3643;52.460;13.322;2024-01-11T11:30:36;39.83;;;15.00;;
7203;SDS011;3643;52.460;13.322;2024-01-11T11:33:09;39.73;;;14.10;;
7203;SDS011;3643;52.460;13.322;2024-01-11T11:35:38;36.73;;;14.57;;
7203;SDS011;3643;52.460;13.322;2024-01-11T11:38:06;41.97;;;14.60;;
7203;SDS011;3643;52.460;13.322;2024-01-11T11:40:39;37.93;;;15.00;;
7203;SDS011;3643;52.460;13.322;2024-01-11T11:43:09;43.67;;;14.93;;
7203;SDS011;3643;52.460;13.322;2024-01-11T11:45:37;45.97;;;16.40;;
7203;SDS011;3643;52.460;13.322;2024-01-11T11:51:15;30.13;;;13.10;;
7203;SDS011;3643;52.460;13.322;2024-01-11T11:53:46;39.10;;;15.20;;
7203;SDS011;3643;52.460;13.322;2024-01-11T11:56:17;43.87;;;14.83;;
7203;SDS011;3643;52.460;13.322;2024-01-11T11:58:47;41.20;;;15.43;;
7203;SDS011;3643;52.460;13.322;2024-01-11T12:01:16;41.03;;;14.63;;
7203;SDS011;3643;52.460;13.322;2024-01-11T12:03:45;39.73;;;15.40;;
7203;SDS011;3643;52.460;13.322;2024-01-11T12:06:16;36.03;;;15.03;;
7203;SDS011;3643;52.460;13.322;2024-01-11T12:08:47;42.67;;;15.73;;
7203;SDS011;3643;52.460;13.322;2024-01-11T12:11:18;41.57;;;15.83;;
7203;SDS011;3643;52.460;13.322;2024-01-11T12:13:49;36.90;;;15.10;;
7203;SDS011;3643;52.460;13.322;2024-01-11T12:16:19;35.73;;;15.43;;
7203;SDS011;3643;52.460;13.322;2024-01-11T12:18:48;38.77;;;14.33;;
7203;SDS011;3643;52.460;13.322;2024-01-11T12:21:17;33.23;;;14.23;;
7203;SDS011;3643;52.460;13.322;2024-01-11T12:23:46;35.57;;;14.20;;
7203;SDS011;3643;52.460;13.322;2024-01-11T12:26:16;40.10;;;14.77;;
7203;SDS011;3643;52.460;13.322;2024-01-11T12:28:51;41.80;;;16.03;;
7203;SDS011;3643;52.460;13.322;2024-01-11T12:31:20;34.83;;;14.70;;
7203;SDS011;3643;52.460;13.322;2024-01-11T12:33:49;37.33;;;14.93;;
7203;SDS011;3643;52.460;13.322;2024-01-11T12:36:18;39.13;;;15.80;;
7203;SDS011;3643;52.460;13.322;2024-01-11T12:38:47;45.43;;;15.67;;
7203;SDS011;3643;52.460;13.322;2024-01-11T12:41:19;41.07;;;15.23;;
7203;SDS011;3643;52.460;13.322;2024-01-11T12:43:50;44.77;;;17.40;;
7203;SDS011;3643;52.460;13.322;2024-01-11T12:46:19;35.97;;;14.63;;
7203;SDS011;3643;52.460;13.322;2024-01-11T12:48:47;41.77;;;15.97;;
7203;SDS011;3643;52.460;13.322;2024-01-11T12:51:17;41.90;;;16.37;;
7203;SDS011;3643;52.460;13.322;2024-01-11T12:53:48;38.77;;;14.57;;
7203;SDS011;3643;52.460;13.322;2024-01-11T12:56:16;42.27;;;15.93;;
7203;SDS011;3643;52.460;13.322;2024-01-11T12:58:48;41.97;;;16.63;;
7203;SDS011;3643;52.460;13.322;2024-01-11T13:01:18;41.10;;;15.87;;
7203;SDS011;3643;52.460;13.322;2024-01-11T13:03:47;37.73;;;16.27;;
7203;SDS011;3643;52.460;13.322;2024-01-11T13:06:16;38.13;;;16.17;;
7203;SDS011;3643;52.460;13.322;2024-01-11T13:08:45;45.63;;;17.93;;
7203;SDS011;3643;52.460;13.322;2024-01-11T13:11:14;39.57;;;15.57;;
7203;SDS011;3643;52.460;13.322;2024-01-11T13:13:44;41.43;;;17.00;;
7203;SDS011;3643;52.460;13.322;2024-01-11T13:16:15;39.27;;;16.17;;
7203;SDS011;3643;52.460;13.322;2024-01-11T13:18:45;36.90;;;15.33;;
7203;SDS011;3643;52.460;13.322;2024-01-11T13:21:14;38.17;;;16.20;;
7203;SDS011;3643;52.460;13.322;2024-01-11T13:23:43;35.93;;;15.47;;
7203;SDS011;3643;52.460;13.322;2024-01-11T13:26:11;36.30;;;16.30;;
7203;SDS011;3643;52.460;13.322;2024-01-11T13:28:40;37.10;;;15.87;;
7203;SDS011;3643;52.460;13.322;2024-01-11T13:31:08;38.73;;;14.57;;
7203;SDS011;3643;52.460;13.322;2024-01-11T13:33:38;37.77;;;16.23;;
7203;SDS011;3643;52.460;13.322;2024-01-11T13:36:07;40.83;;;15.60;;
7203;SDS011;3643;52.460;13.322;2024-01-11T13:38:35;41.37;;;16.73;;
7203;SDS011;3643;52.460;13.322;2024-01-11T13:41:04;37.47;;;15.50;;
7203;SDS011;3643;52.460;13.322;2024-01-11T13:43:34;39.07;;;15.47;;
7203;SDS011;3643;52.460;13.322;2024-01-11T13:46:03;39.67;;;15.47;;
7203;SDS011;3643;52.460;13.322;2024-01-11T13:48:31;34.97;;;16.00;;
7203;SDS011;3643;52.460;13.322;2024-01-11T13:51:01;36.20;;;15.37;;
7203;SDS011;3643;52.460;13.322;2024-01-11T13:53:30;45.67;;;16.00;;
7203;SDS011;3643;52.460;13.322;2024-01-11T13:55:59;39.47;;;15.47;;
7203;SDS011;3643;52.460;13.322;2024-01-11T13:58:28;40.50;;;15.50;;
7203;SDS011;3643;52.460;13.322;2024-01-11T14:00:59;40.97;;;16.10;;
7203;SDS011;3643;52.460;13.322;2024-01-11T14:03:28;41.20;;;15.77;;
7203;SDS011;3643;52.460;13.322;2024-01-11T14:05:56;39.43;;;15.67;;
7203;SDS011;3643;52.460;13.322;2024-01-11T14:08:27;36.80;;;16.03;;
7203;SDS011;3643;52.460;13.322;2024-01-11T14:10:55;36.13;;;14.93;;
7203;SDS011;3643;52.460;13.322;2024-01-11T14:13:24;45.03;;;15.27;;
7203;SDS011;3643;52.460;13.322;2024-01-11T14:15:52;35.07;;;14.47;;
7203;SDS011;3643;52.460;13.322;2024-01-11T14:18:22;40.07;;;15.03;;
7203;SDS011;3643;52.460;13.322;2024-01-11T14:20:51;35.33;;;14.93;;
7203;SDS011;3643;52.460;13.322;2024-01-11T14:23:20;36.00;;;14.83;;
7203;SDS011;3643;52.460;13.322;2024-01-11T14:25:49;38.87;;;14.73;;
7203;SDS011;3643;52.460;13.322;2024-01-11T14:28:17;38.40;;;15.47;;
7203;SDS011;3643;52.460;13.322;2024-01-11T14:30:45;33.10;;;14.60;;
7203;SDS011;3643;52.460;13.322;2024-01-11T14:33:15;37.00;;;14.70;;
7203;SDS011;3643;52.460;13.322;2024-01-11T14:35:45;39.57;;;14.90;;
7203;SDS011;3643;52.460;13.322;2024-01-11T14:38:14;38.43;;;15.10;;
7203;SDS011;3643;52.460;13.322;2024-01-11T14:40:42;38.20;;;14.80;;
7203;SDS011;3643;52.460;13.322;2024-01-11T14:43:13;37.50;;;14.53;;
7203;SDS011;3643;52.460;13.322;2024-01-11T14:45:41;34.17;;;14.17;;
7203;SDS011;3643;52.460;13.322;2024-01-11T14:48:09;36.50;;;14.47;;
7203;SDS011;3643;52.460;13.322;2024-01-11T14:50:39;34.00;;;14.33;;
7203;SDS011;3643;52.460;13.322;2024-01-11T14:53:07;38.13;;;14.97;;